createdAt,value
2023-03-22T00:01:11.700Z,99.90
2023-03-22T00:03:40.986Z,99.90
2023-03-22T00:06:08.744Z,99.90
2023-03-22T00:08:35.745Z,99.90
2023-03-22T00:11:05.885Z,99.90
2023-03-22T00:13:35.383Z,99.90
2023-03-22T00:16:02.879Z,99.90
2023-03-22T00:18:30.797Z,99.90
2023-03-22T00:21:00.519Z,99.90
2023-03-22T00:23:27.906Z,99.90
2023-03-22T00:25:55.355Z,99.90
2023-03-22T00:28:22.308Z,99.90
2023-03-22T00:30:54.021Z,99.90
2023-03-22T00:33:20.967Z,99.90
2023-03-22T00:35:57.252Z,99.90
2023-03-22T00:38:41.143Z,99.90
2023-03-22T00:41:09.879Z,99.90
2023-03-22T00:43:37.138Z,99.90
2023-03-22T00:46:04.777Z,99.90
2023-03-22T00:48:31.740Z,99.90
2023-03-22T00:50:58.589Z,99.90
2023-03-22T00:53:29.016Z,99.90
2023-03-22T00:55:56.219Z,99.90
2023-03-22T00:58:23.249Z,99.90
2023-03-22T01:00:50.312Z,99.90
2023-03-22T01:03:17.546Z,99.90
2023-03-22T01:05:45.380Z,99.90
2023-03-22T01:08:12.902Z,99.90
2023-03-22T01:10:42.308Z,99.90
2023-03-22T01:13:10.733Z,99.90
2023-03-22T01:15:37.730Z,99.90
2023-03-22T01:18:04.766Z,99.90
2023-03-22T01:20:32.235Z,99.90
2023-03-22T01:22:59.537Z,99.90
2023-03-22T01:25:26.446Z,99.90
2023-03-22T01:27:54.679Z,99.90
2023-03-22T01:30:21.554Z,99.90
2023-03-22T01:32:48.387Z,99.90
2023-03-22T01:35:15.591Z,99.90
2023-03-22T01:37:42.446Z,99.90
2023-03-22T01:40:16.345Z,99.90
2023-03-22T01:42:43.223Z,99.90
2023-03-22T01:45:35.817Z,99.90
2023-03-22T01:48:07.562Z,99.90
2023-03-22T01:50:37.506Z,99.90
2023-03-22T01:53:06.616Z,99.90
2023-03-22T01:55:34.072Z,99.90
2023-03-22T01:58:02.860Z,99.90
2023-03-22T02:00:31.930Z,99.90
2023-03-22T02:02:59.101Z,99.90
2023-03-22T02:05:27.584Z,99.90
2023-03-22T02:07:54.627Z,99.90
2023-03-22T02:10:25.555Z,99.90
2023-03-22T02:13:03.626Z,99.90
2023-03-22T02:15:35.921Z,99.90
2023-03-22T02:18:18.525Z,99.90
2023-03-22T02:21:12.335Z,99.90
2023-03-22T02:24:08.929Z,99.90
2023-03-22T02:26:59.294Z,99.90
2023-03-22T02:29:36.293Z,99.90
2023-03-22T02:32:42.117Z,99.90
2023-03-22T02:35:33.435Z,99.90
2023-03-22T02:38:31.526Z,99.90
2023-03-22T02:41:10.637Z,99.90
2023-03-22T02:43:42.054Z,99.90
2023-03-22T02:46:11.705Z,99.90
2023-03-22T02:48:45.343Z,99.90
2023-03-22T02:51:18.962Z,99.90
2023-03-22T02:53:52.431Z,99.90
2023-03-22T02:56:25.512Z,99.90
2023-03-22T02:58:54.899Z,99.90
2023-03-22T03:01:26.581Z,99.90
2023-03-22T03:03:57.770Z,99.90
2023-03-22T03:06:28.954Z,99.90
2023-03-22T03:08:58.024Z,99.90
2023-03-22T03:11:26.244Z,99.90
2023-03-22T03:13:53.091Z,99.90
2023-03-22T03:16:22.693Z,99.90
2023-03-22T03:18:55.669Z,99.90
2023-03-22T03:21:32.693Z,99.90
2023-03-22T03:24:09.531Z,99.90
2023-03-22T03:26:46.422Z,99.90
2023-03-22T03:29:21.347Z,99.90
2023-03-22T03:31:54.816Z,99.90
2023-03-22T03:34:26.184Z,99.90
2023-03-22T03:36:57.933Z,99.90
2023-03-22T03:39:28.276Z,99.90
2023-03-22T03:41:57.368Z,99.90
2023-03-22T03:44:24.638Z,99.90
2023-03-22T03:46:52.870Z,99.90
2023-03-22T03:49:21.756Z,99.90
2023-03-22T03:51:51.555Z,99.90
2023-03-22T03:54:19.196Z,99.90
2023-03-22T03:56:47.684Z,99.90
2023-03-22T03:59:16.210Z,99.90
2023-03-22T04:01:49.936Z,99.90
2023-03-22T04:04:18.138Z,99.90
2023-03-22T04:06:45.007Z,99.90
2023-03-22T04:09:11.905Z,99.90
2023-03-22T04:11:38.780Z,99.90
2023-03-22T04:14:05.961Z,99.90
2023-03-22T04:16:34.191Z,99.90
2023-03-22T04:19:01.045Z,99.90
2023-03-22T04:21:27.903Z,99.90
2023-03-22T04:23:55.580Z,99.90
2023-03-22T04:26:23.353Z,99.90
2023-03-22T04:28:51.364Z,99.90
2023-03-22T04:31:18.486Z,99.90
2023-03-22T04:33:46.957Z,99.90
2023-03-22T04:36:17.622Z,99.90
2023-03-22T04:38:44.582Z,99.90
2023-03-22T04:41:11.691Z,99.90
2023-03-22T04:43:39.414Z,99.90
2023-03-22T04:46:10.003Z,99.90
2023-03-22T04:48:37.923Z,99.90
2023-03-22T04:51:07.807Z,99.90
2023-03-22T04:53:38.783Z,99.90
2023-03-22T04:56:07.628Z,99.90
2023-03-22T04:58:36.372Z,99.90
2023-03-22T05:01:03.989Z,99.90
2023-03-22T05:03:30.753Z,99.90
2023-03-22T05:05:59.757Z,99.90
2023-03-22T05:08:29.876Z,99.90
2023-03-22T05:10:58.438Z,99.90
2023-03-22T05:13:26.923Z,99.90
2023-03-22T05:15:54.181Z,99.90
2023-03-22T05:18:26.255Z,99.90
2023-03-22T05:20:55.672Z,99.90
2023-03-22T05:23:23.087Z,99.90
2023-03-22T05:25:52.441Z,99.90
2023-03-22T05:28:21.455Z,99.90
2023-03-22T05:30:49.548Z,99.90
2023-03-22T05:33:21.509Z,99.90
2023-03-22T05:35:50.055Z,99.90
2023-03-22T05:38:17.094Z,99.90
2023-03-22T05:40:43.954Z,99.90
2023-03-22T05:43:12.849Z,99.90
2023-03-22T05:45:39.737Z,99.90
2023-03-22T05:48:07.170Z,99.90
2023-03-22T05:50:34.768Z,99.90
2023-03-22T05:53:03.320Z,99.90
2023-03-22T05:55:32.089Z,99.90
2023-03-22T05:57:59.329Z,99.90
2023-03-22T06:00:31.879Z,99.90
2023-03-22T06:03:03.180Z,99.90
2023-03-22T06:05:36.459Z,99.90
2023-03-22T06:08:03.985Z,99.90
2023-03-22T06:10:31.030Z,99.90
2023-03-22T06:12:58.062Z,99.90
2023-03-22T06:15:24.892Z,99.90
2023-03-22T06:17:53.028Z,99.90
2023-03-22T06:20:20.065Z,99.90
2023-03-22T06:22:46.959Z,99.90
2023-03-22T06:25:14.732Z,99.90
2023-03-22T06:27:41.607Z,99.90
2023-03-22T06:30:09.441Z,99.90
2023-03-22T06:32:36.335Z,99.90
2023-03-22T06:35:05.341Z,99.90
2023-03-22T06:37:32.164Z,99.90
2023-03-22T06:39:58.991Z,99.90
2023-03-22T06:42:26.169Z,99.90
2023-03-22T06:44:52.960Z,99.90
2023-03-22T06:47:19.908Z,99.90
2023-03-22T06:49:46.752Z,99.90
2023-03-22T06:52:15.022Z,99.90
2023-03-22T06:54:41.966Z,99.90
2023-03-22T06:57:08.926Z,99.90
2023-03-22T06:59:35.940Z,99.90
2023-03-22T07:02:02.813Z,99.90
2023-03-22T07:04:29.890Z,99.90
2023-03-22T07:06:56.870Z,99.90
2023-03-22T07:09:26.941Z,99.90
2023-03-22T07:11:53.960Z,99.90
2023-03-22T07:14:21.314Z,99.90
2023-03-22T07:16:48.132Z,99.90
2023-03-22T07:19:15.530Z,99.90
2023-03-22T07:21:42.438Z,99.90
2023-03-22T07:24:11.909Z,99.90
2023-03-22T07:26:41.311Z,99.90
2023-03-22T07:29:08.560Z,99.90
2023-03-22T07:31:36.519Z,99.90
2023-03-22T07:34:04.084Z,99.90
2023-03-22T07:36:31.135Z,99.90
2023-03-22T07:38:58.105Z,99.90
2023-03-22T07:41:26.918Z,99.90
2023-03-22T07:44:04.806Z,99.90
2023-03-22T07:46:38.283Z,99.90
2023-03-22T07:49:05.495Z,99.90
2023-03-22T07:51:32.348Z,99.90
2023-03-22T07:53:59.327Z,99.90
2023-03-22T07:56:26.340Z,99.90
2023-03-22T07:58:53.350Z,99.90
2023-03-22T08:01:21.768Z,99.90
2023-03-22T08:03:48.711Z,99.90
2023-03-22T08:06:16.413Z,99.90
2023-03-22T08:08:43.615Z,99.90
2023-03-22T08:11:12.283Z,99.90
2023-03-22T08:13:39.736Z,99.90
2023-03-22T08:16:07.052Z,99.90
2023-03-22T08:18:35.455Z,99.90
2023-03-22T08:21:02.802Z,99.90
2023-03-22T08:23:40.999Z,99.90
2023-03-22T08:26:09.040Z,99.90
2023-03-22T08:28:36.831Z,99.90
2023-03-22T08:31:12.713Z,99.90
2023-03-22T08:33:43.073Z,99.90
2023-03-22T08:36:13.018Z,99.90
2023-03-22T08:38:39.809Z,99.90
2023-03-22T08:41:07.073Z,99.90
2023-03-22T08:43:33.921Z,99.90
2023-03-22T08:46:00.835Z,99.90
2023-03-22T08:48:30.342Z,99.90
2023-03-22T08:50:58.646Z,99.90
2023-03-22T08:53:25.581Z,99.90
2023-03-22T08:55:52.550Z,99.90
2023-03-22T08:58:21.987Z,99.90
2023-03-22T09:00:49.899Z,99.90
2023-03-22T09:03:17.051Z,99.90
2023-03-22T09:05:44.069Z,99.90
2023-03-22T09:08:18.433Z,99.90
2023-03-22T09:10:47.944Z,99.90
2023-03-22T09:13:16.788Z,99.90
2023-03-22T09:15:44.914Z,99.90
2023-03-22T09:18:12.200Z,99.90
2023-03-22T09:20:39.700Z,99.90
2023-03-22T09:23:07.018Z,99.90
2023-03-22T09:25:35.370Z,99.90
2023-03-22T09:28:02.493Z,99.90
2023-03-22T09:30:29.535Z,99.90
2023-03-22T09:32:56.647Z,99.90
2023-03-22T09:35:23.563Z,99.90
2023-03-22T09:37:53.210Z,99.90
2023-03-22T09:40:21.797Z,99.90
2023-03-22T09:42:52.367Z,99.90
2023-03-22T09:45:25.154Z,99.90
2023-03-22T09:47:54.710Z,99.90
2023-03-22T09:50:23.968Z,99.90
2023-03-22T09:52:51.820Z,99.90
2023-03-22T09:55:21.847Z,99.90
2023-03-22T09:57:58.858Z,99.90
2023-03-22T10:00:38.237Z,99.90
2023-03-22T10:03:17.770Z,99.90
2023-03-22T10:05:50.234Z,99.90
2023-03-22T10:08:36.701Z,99.90
2023-03-22T10:11:09.118Z,99.90
2023-03-22T10:13:41.702Z,99.90
2023-03-22T10:16:13.542Z,99.90
2023-03-22T10:18:45.371Z,99.90
2023-03-22T10:21:14.420Z,99.90
2023-03-22T10:23:46.601Z,99.90
2023-03-22T10:26:20.990Z,99.90
2023-03-22T10:28:56.735Z,99.90
2023-03-22T10:31:26.602Z,99.90
2023-03-22T10:33:58.778Z,99.90
2023-03-22T10:36:31.229Z,99.90
2023-03-22T10:39:04.010Z,99.90
2023-03-22T10:41:33.566Z,99.90
2023-03-22T10:44:04.948Z,99.90
2023-03-22T10:46:37.107Z,99.90
2023-03-22T10:49:05.455Z,99.90
2023-03-22T10:51:38.968Z,99.90
2023-03-22T10:54:06.653Z,99.90
2023-03-22T10:56:33.527Z,99.90
2023-03-22T10:59:01.774Z,99.90
2023-03-22T11:01:32.067Z,99.90
2023-03-22T11:04:05.798Z,99.90
2023-03-22T11:06:38.344Z,99.90
2023-03-22T11:09:12.983Z,99.90
2023-03-22T11:11:48.011Z,99.90
2023-03-22T11:14:20.321Z,99.90
2023-03-22T11:16:52.637Z,99.90
2023-03-22T11:19:25.804Z,99.90
2023-03-22T11:21:53.964Z,99.90
2023-03-22T11:24:22.182Z,99.90
2023-03-22T11:27:03.294Z,99.90
2023-03-22T11:29:40.354Z,99.90
2023-03-22T11:32:21.967Z,99.90
2023-03-22T11:34:59.588Z,99.90
2023-03-22T11:37:26.711Z,99.30
2023-03-22T11:40:01.585Z,99.00
2023-03-22T11:42:28.825Z,98.50
2023-03-22T11:44:57.637Z,98.20
2023-03-22T11:47:30.405Z,98.00
2023-03-22T11:49:57.589Z,97.60
2023-03-22T11:52:26.947Z,97.40
2023-03-22T11:54:55.202Z,97.20
2023-03-22T11:57:25.245Z,97.20
2023-03-22T11:59:59.761Z,97.00
2023-03-22T12:02:29.846Z,96.90
2023-03-22T12:05:03.084Z,96.90
2023-03-22T12:07:34.281Z,96.90
2023-03-22T12:10:06.462Z,96.70
2023-03-22T12:12:36.758Z,96.50
2023-03-22T12:15:11.926Z,96.30
2023-03-22T12:17:45.049Z,95.90
2023-03-22T12:20:21.031Z,95.50
2023-03-22T12:22:52.700Z,95.00
2023-03-22T12:25:22.745Z,95.00
2023-03-22T12:27:53.956Z,94.80
2023-03-22T12:30:25.629Z,94.50
2023-03-22T12:32:58.677Z,94.00
2023-03-22T12:35:29.235Z,94.00
2023-03-22T12:37:58.690Z,94.10
2023-03-22T12:40:28.994Z,94.20
2023-03-22T12:43:02.440Z,94.50
2023-03-22T12:45:33.450Z,94.30
2023-03-22T12:48:07.372Z,94.40
2023-03-22T12:50:38.941Z,94.30
2023-03-22T12:53:06.640Z,94.40
2023-03-22T12:55:36.732Z,94.50
2023-03-22T12:58:06.117Z,94.60
2023-03-22T13:00:39.761Z,94.60
2023-03-22T13:03:18.842Z,94.40
2023-03-22T13:05:47.902Z,94.50
2023-03-22T13:08:19.919Z,94.40
2023-03-22T13:11:05.468Z,94.50
2023-03-22T13:13:44.268Z,94.50
2023-03-22T13:16:22.321Z,94.40
2023-03-22T13:19:17.347Z,94.30
2023-03-22T13:21:45.636Z,94.30
2023-03-22T13:24:23.469Z,94.30
2023-03-22T13:26:53.264Z,93.90
2023-03-22T13:29:22.167Z,93.80
2023-03-22T13:31:58.456Z,93.50
2023-03-22T13:34:38.955Z,93.20
2023-03-22T13:37:10.998Z,93.10
2023-03-22T13:39:39.346Z,93.10
2023-03-22T13:42:19.124Z,93.00
2023-03-22T13:44:53.956Z,92.90
2023-03-22T13:47:35.177Z,93.00
2023-03-22T13:50:14.586Z,92.80
2023-03-22T13:52:44.958Z,93.00
2023-03-22T13:55:43.708Z,93.00
2023-03-22T13:58:36.603Z,92.90
2023-03-22T14:01:06.144Z,92.80
2023-03-22T14:03:36.806Z,92.70
2023-03-22T14:06:11.532Z,92.90
2023-03-22T14:08:41.923Z,92.70
2023-03-22T14:11:20.334Z,92.70
2023-03-22T14:13:51.337Z,92.60
2023-03-22T14:16:27.853Z,92.50
2023-03-22T14:18:56.614Z,92.50
2023-03-22T14:21:30.935Z,92.80
